Anthony, New Mexico
Current Conditions -  °F | °C
As of 1:58 AM on Friday 31 Oct 2014 (Local Time) from KBIF Reporting Station
Haze Haze  
Wind Chill: 59°   Ceiling: Unl
Heat Index: 59°   Visibility: 5mi
Dew Point: 40°   Wind: 6mph
Humidity: 49%   Direction: 80°E
Pressure: 30.27"   Gusts: NA
Location:  32°N, 106.6°W
Report Text: KBIF 310758Z AUTO 08005KT 5SM HZ CLR 15/04 A3027 RMK AO2 SLP197 T01490043 $
Loading
Personal Weather Stations






























Interactive Weather Map
Tropical Storm Tracking
New forecast layout! Learn more

10-Day Weather Forecast

Advertisements
Track Severe Weather on mobile